Time;durP1;ratioP1;P1;durP2;ratioP2;P2;SDS_P1;SDS_P2;PMS_P1;PMS_P2;Temp;Humidity;BMP_temperature;BMP_pressure;BME280_temperature;BME280_humidity;BME280_pressure;Samples;Min_cycle;Max_cycle;Signal;HPM_P1;HPM_P2
2021/11/22 00:00:28;;;;;;;23.88;13.70;;;5.70;81.30;;;;;;5046263;28;20460;-68
2021/11/22 00:02:56;;;;;;;23.10;13.18;;;5.80;82.30;;;;;;5046587;28;20039;-68
2021/11/22 00:05:22;;;;;;;24.15;13.82;;;5.80;81.40;;;;;;5045232;28;20042;-66
2021/11/22 00:07:48;;;;;;;24.67;14.05;;;5.80;81.50;;;;;;5046173;28;20500;-68
2021/11/22 00:10:15;;;;;;;23.58;13.07;;;5.80;81.40;;;;;;5045271;28;20037;-67
2021/11/22 00:12:41;;;;;;;24.48;13.95;;;5.80;82.50;;;;;;5040033;28;20041;-67
2021/11/22 00:15:10;;;;;;;22.85;13.10;;;5.80;81.50;;;;;;5044269;28;20083;-67
2021/11/22 00:17:36;;;;;;;24.25;14.10;;;5.90;81.60;;;;;;5045387;28;20055;-67
2021/11/22 00:20:08;;;;;;;23.58;14.18;;;5.90;81.60;;;;;;5046054;28;20029;-67
2021/11/22 00:22:34;;;;;;;25.13;13.93;;;5.90;81.60;;;;;;5045526;28;20035;-67
2021/11/22 00:25:00;;;;;;;23.08;13.30;;;5.90;81.50;;;;;;5045831;28;20148;-68
2021/11/22 00:27:26;;;;;;;22.92;13.57;;;5.90;81.50;;;;;;5043921;28;20516;-68
2021/11/22 00:29:52;;;;;;;24.08;14.38;;;5.90;81.40;;;;;;5046305;28;20041;-67
2021/11/22 00:32:18;;;;;;;24.70;14.80;;;5.90;81.40;;;;;;5045965;28;21975;-67
2021/11/22 00:34:44;;;;;;;25.52;14.85;;;5.90;81.40;;;;;;5041818;28;20037;-67
2021/11/22 00:37:21;;;;;;;24.00;14.38;;;5.90;82.00;;;;;;5036744;28;20048;-67
2021/11/22 00:39:47;;;;;;;24.42;13.80;;;5.90;82.10;;;;;;5041225;28;20041;-67
2021/11/22 00:42:13;;;;;;;22.10;14.10;;;5.90;81.40;;;;;;5042031;28;20630;-67
2021/11/22 00:44:39;;;;;;;24.05;13.95;;;5.90;81.40;;;;;;5040265;28;20055;-66
2021/11/22 00:47:07;;;;;;;24.40;12.95;;;5.90;81.40;;;;;;5042466;28;20036;-67
2021/11/22 00:49:33;;;;;;;19.60;12.25;;;5.90;81.40;;;;;;5041835;28;20501;-68
2021/11/22 00:51:59;;;;;;;20.55;12.52;;;5.90;81.40;;;;;;5043188;28;20072;-67
2021/11/22 00:54:24;;;;;;;21.92;12.93;;;5.90;81.40;;;;;;5036207;28;20029;-68
2021/11/22 00:56:50;;;;;;;17.73;11.43;;;5.90;81.40;;;;;;5039113;28;20044;-67
2021/11/22 00:59:16;;;;;;;20.67;12.07;;;5.90;81.40;;;;;;5041653;28;20068;-67
2021/11/22 01:01:42;;;;;;;19.58;12.13;;;5.90;81.40;;;;;;5040568;28;20095;-67
2021/11/22 01:04:08;;;;;;;19.70;11.63;;;5.90;81.40;;;;;;5038909;28;20029;-67
2021/11/22 01:06:34;;;;;;;19.00;12.10;;;5.80;81.40;;;;;;5042455;28;20025;-67
2021/11/22 01:09:00;;;;;;;19.27;11.07;;;5.80;81.50;;;;;;5035695;28;20052;-67
2021/11/22 01:11:26;;;;;;;19.10;10.98;;;5.80;81.40;;;;;;5033052;28;20029;-67
2021/11/22 01:13:51;;;;;;;18.80;10.48;;;5.80;81.30;;;;;;5042035;28;20091;-67
2021/11/22 01:16:17;;;;;;;18.17;10.55;;;5.80;81.30;;;;;;5037968;28;20057;-67
2021/11/22 01:18:43;;;;;;;19.08;11.40;;;5.80;81.30;;;;;;5045852;28;20025;-67
2021/11/22 01:21:08;;;;;;;18.98;10.95;;;5.80;81.40;;;;;;5040591;28;20455;-67
2021/11/22 01:23:34;;;;;;;19.55;10.52;;;5.80;81.50;;;;;;5039855;28;20159;-67
2021/11/22 01:26:00;;;;;;;18.73;11.60;;;5.80;81.60;;;;;;5040006;28;20033;-67
2021/11/22 01:28:27;;;;;;;18.17;10.55;;;5.80;81.60;;;;;;5047013;28;20028;-67
2021/11/22 01:30:53;;;;;;;18.63;10.70;;;5.80;81.50;;;;;;5043321;28;20382;-67
2021/11/22 01:33:19;;;;;;;17.58;10.63;;;5.80;81.50;;;;;;5044661;28;20114;-67
2021/11/22 01:35:45;;;;;;;17.38;10.10;;;5.80;81.50;;;;;;5044885;28;20047;-67
2021/11/22 01:38:15;;;;;;;16.17;9.32;;;5.80;81.50;;;;;;5042554;28;20041;-67
2021/11/22 01:40:42;;;;;;;17.23;10.25;;;5.80;81.60;;;;;;5041062;28;20052;-67
2021/11/22 01:43:07;;;;;;;16.15;10.50;;;5.80;81.80;;;;;;5046149;28;20061;-67
2021/11/22 01:45:34;;;;;;;17.00;9.65;;;5.80;81.60;;;;;;5045179;28;20584;-67
2021/11/22 01:48:00;;;;;;;16.25;9.43;;;5.80;81.70;;;;;;5048087;28;20032;-67
2021/11/22 01:50:27;;;;;;;15.38;9.27;;;5.80;81.70;;;;;;5043206;28;20036;-67
2021/11/22 01:52:55;;;;;;;15.05;9.32;;;5.80;81.80;;;;;;5047231;28;20639;-66
2021/11/22 01:55:22;;;;;;;16.98;9.93;;;5.70;81.60;;;;;;5043012;28;20515;-67
2021/11/22 01:57:50;;;;;;;17.25;10.18;;;5.70;81.70;;;;;;5038404;28;20191;-67
2021/11/22 02:00:22;;;;;;;16.85;9.63;;;5.70;81.70;;;;;;5045095;28;20041;-65
2021/11/22 02:02:48;;;;;;;16.38;9.70;;;5.70;81.70;;;;;;5044958;28;20033;-67
2021/11/22 02:05:14;;;;;;;16.42;9.70;;;5.70;81.70;;;;;;5047571;28;20040;-67
2021/11/22 02:07:41;;;;;;;17.02;9.38;;;5.70;81.80;;;;;;5044140;28;20049;-67
2021/11/22 02:10:07;;;;;;;16.35;9.50;;;5.70;81.70;;;;;;5042054;28;20045;-67
2021/11/22 02:12:34;;;;;;;17.58;10.35;;;5.70;81.80;;;;;;5040646;28;20067;-67
2021/11/22 02:15:00;;;;;;;14.40;8.80;;;5.70;81.80;;;;;;5044001;28;20037;-67
2021/11/22 02:17:26;;;;;;;16.63;9.75;;;5.60;81.80;;;;;;5042151;28;20047;-67
2021/11/22 02:19:58;;;;;;;19.75;10.10;;;5.60;81.80;;;;;;5045240;28;20041;-67
2021/11/22 02:22:24;;;;;;;16.40;9.88;;;5.60;82.00;;;;;;5044788;28;20037;-67
2021/11/22 02:24:50;;;;;;;17.45;9.63;;;5.60;82.10;;;;;;5046437;28;20051;-67
2021/11/22 02:27:16;;;;;;;15.20;9.40;;;5.60;82.10;;;;;;5039830;28;20037;-67
2021/11/22 02:29:41;;;;;;;17.08;9.27;;;5.60;82.10;;;;;;5040267;28;20068;-66
2021/11/22 02:32:07;;;;;;;15.68;9.38;;;5.60;82.20;;;;;;5042480;28;20056;-67
2021/11/22 02:34:33;;;;;;;15.40;8.60;;;5.60;82.30;;;;;;5044276;28;20055;-67
2021/11/22 02:36:58;;;;;;;14.75;9.27;;;5.60;82.30;;;;;;5042239;28;20040;-67
2021/11/22 02:39:24;;;;;;;16.25;10.30;;;5.60;82.40;;;;;;5042806;28;20042;-67
2021/11/22 02:41:50;;;;;;;14.98;9.45;;;5.60;82.30;;;;;;5042035;28;20091;-67
2021/11/22 02:44:16;;;;;;;15.57;9.75;;;5.60;82.30;;;;;;5045002;28;20717;-68
2021/11/22 02:46:41;;;;;;;15.07;9.75;;;5.50;83.10;;;;;;5044966;28;20063;-67
2021/11/22 02:49:07;;;;;;;17.10;9.65;;;5.50;82.40;;;;;;5048629;28;20044;-67
2021/11/22 02:51:33;;;;;;;19.95;10.23;;;5.50;82.50;;;;;;5041714;28;20677;-68
2021/11/22 02:54:03;;;;;;;16.15;9.80;;;5.50;82.60;;;;;;5043235;28;20107;-68
2021/11/22 02:56:31;;;;;;;17.65;9.60;;;5.50;82.50;;;;;;5043828;28;20055;-66
2021/11/22 02:58:57;;;;;;;16.77;9.80;;;5.50;82.50;;;;;;5043778;28;20156;-67
2021/11/22 03:01:23;;;;;;;17.88;9.77;;;5.50;82.50;;;;;;5041573;28;20064;-67
2021/11/22 03:03:49;;;;;;;16.65;9.95;;;5.50;82.50;;;;;;5044955;28;20428;-67
2021/11/22 03:06:16;;;;;;;16.77;9.35;;;5.50;82.50;;;;;;5040562;28;20083;-67
2021/11/22 03:08:44;;;;;;;17.67;9.68;;;5.50;82.50;;;;;;5041596;28;20579;-66
2021/11/22 03:11:11;;;;;;;17.02;9.73;;;5.50;82.60;;;;;;5043977;28;20041;-67
2021/11/22 03:13:38;;;;;;;18.98;9.95;;;5.50;82.50;;;;;;5045320;28;20439;-67
2021/11/22 03:16:04;;;;;;;17.58;9.98;;;5.50;82.50;;;;;;5047380;28;20645;-67
2021/11/22 03:18:30;;;;;;;16.23;9.32;;;5.50;82.40;;;;;;5046698;28;20031;-67
2021/11/22 03:20:57;;;;;;;15.63;10.20;;;5.50;82.50;;;;;;5046529;28;20031;-67
2021/11/22 03:23:23;;;;;;;16.63;9.63;;;5.60;82.50;;;;;;5048200;28;20516;-67
2021/11/22 03:25:49;;;;;;;16.70;9.68;;;5.50;82.50;;;;;;5041794;28;20029;-66
2021/11/22 03:28:19;;;;;;;15.65;9.25;;;5.70;82.60;;;;;;5040623;28;20404;-67
2021/11/22 03:30:45;;;;;;;18.45;10.68;;;5.50;82.50;;;;;;5041184;28;20059;-67
2021/11/22 03:33:11;;;;;;;15.85;9.90;;;5.50;82.50;;;;;;5042913;28;20451;-67
2021/11/22 03:35:38;;;;;;;16.48;9.68;;;5.60;82.50;;;;;;5041770;28;20033;-67
2021/11/22 03:38:05;;;;;;;18.10;10.32;;;5.60;82.50;;;;;;5045344;28;20048;-67
2021/11/22 03:40:32;;;;;;;16.13;10.07;;;5.60;82.30;;;;;;5041376;28;20591;-67
2021/11/22 03:43:13;;;;;;;17.70;10.25;;;5.60;82.20;;;;;;5042620;28;20090;-67
2021/11/22 03:45:42;;;;;;;16.98;9.48;;;5.60;82.30;;;;;;5041623;28;20025;-67
2021/11/22 03:48:09;;;;;;;15.80;9.13;;;5.60;82.30;;;;;;5043579;28;20630;-67
2021/11/22 03:50:35;;;;;;;15.85;9.07;;;5.60;83.20;;;;;;5044505;28;20500;-67
2021/11/22 03:53:00;;;;;;;18.33;10.35;;;5.60;82.30;;;;;;5043931;28;20056;-66
2021/11/22 03:55:27;;;;;;;16.95;9.80;;;5.60;82.40;;;;;;5042223;28;20459;-66
2021/11/22 03:57:53;;;;;;;17.40;9.25;;;5.60;82.40;;;;;;5039525;28;20083;-67
2021/11/22 04:00:19;;;;;;;15.75;9.82;;;5.60;82.30;;;;;;5040661;28;20037;-67
2021/11/22 04:02:45;;;;;;;16.73;9.40;;;5.60;82.30;;;;;;5046800;28;20044;-68
2021/11/22 04:05:11;;;;;;;16.83;9.52;;;5.60;83.20;;;;;;5045256;28;20044;-68
2021/11/22 04:07:37;;;;;;;16.33;10.13;;;5.60;82.50;;;;;;5044705;28;20033;-66
2021/11/22 04:10:03;;;;;;;15.68;9.82;;;5.70;82.50;;;;;;5042740;28;20045;-67
2021/11/22 04:12:29;;;;;;;19.02;9.70;;;5.70;82.50;;;;;;5036662;28;20522;-67
2021/11/22 04:14:55;;;;;;;18.10;10.05;;;5.70;82.50;;;;;;5042097;28;20127;-67
2021/11/22 04:17:20;;;;;;;17.40;9.82;;;5.70;82.40;;;;;;5038905;28;20045;-67
2021/11/22 04:19:46;;;;;;;21.52;11.00;;;5.70;82.40;;;;;;5043706;28;20064;-67
2021/11/22 04:22:12;;;;;;;18.85;10.73;;;5.70;82.30;;;;;;5040846;28;20059;-67
2021/11/22 04:24:38;;;;;;;19.00;10.77;;;5.70;82.30;;;;;;5043441;28;20071;-66
2021/11/22 04:27:07;;;;;;;21.15;11.35;;;5.70;82.40;;;;;;5040284;28;20041;-68
2021/11/22 04:29:33;;;;;;;19.35;11.27;;;5.60;82.40;;;;;;5045908;28;20061;-67
2021/11/22 04:31:58;;;;;;;21.00;11.32;;;5.60;82.40;;;;;;5038220;28;20203;-67
2021/11/22 04:34:24;;;;;;;17.95;10.80;;;5.60;82.50;;;;;;5038790;28;20037;-67
2021/11/22 04:36:50;;;;;;;20.45;11.38;;;5.60;82.50;;;;;;5036653;28;20070;-65
2021/11/22 04:39:15;;;;;;;21.67;11.68;;;5.60;82.60;;;;;;5038672;28;20147;-67
2021/11/22 04:41:42;;;;;;;20.50;11.63;;;5.60;82.60;;;;;;5038318;28;20044;-67
2021/11/22 04:44:08;;;;;;;19.27;11.20;;;5.60;82.70;;;;;;5036191;28;20041;-67
2021/11/22 04:46:33;;;;;;;21.80;12.27;;;5.60;82.80;;;;;;5032840;28;20036;-67
2021/11/22 04:48:59;;;;;;;21.73;11.60;;;5.60;82.80;;;;;;5040582;28;20033;-67
2021/11/22 04:51:26;;;;;;;21.90;12.35;;;5.60;82.80;;;;;;5036590;28;20084;-66
2021/11/22 04:53:51;;;;;;;24.42;12.30;;;5.60;82.90;;;;;;5038679;28;20025;-67
2021/11/22 04:56:17;;;;;;;24.65;13.82;;;5.60;82.90;;;;;;5036991;28;20518;-67
2021/11/22 04:58:43;;;;;;;28.52;14.10;;;5.60;82.90;;;;;;5036197;28;20116;-67
2021/11/22 05:01:09;;;;;;;25.70;13.40;;;5.60;82.80;;;;;;5035183;28;20095;-67
2021/11/22 05:03:35;;;;;;;25.98;13.93;;;5.60;82.90;;;;;;5038416;28;20443;-67
2021/11/22 05:06:00;;;;;;;24.60;13.63;;;5.60;82.90;;;;;;5036310;28;20087;-67
2021/11/22 05:08:26;;;;;;;22.70;12.50;;;5.60;83.00;;;;;;5035556;28;20025;-67
2021/11/22 05:10:51;;;;;;;22.95;12.32;;;5.60;83.00;;;;;;5038510;28;20060;-67
2021/11/22 05:13:19;;;;;;;23.67;11.90;;;5.60;82.90;;;;;;5040597;28;20075;-67
2021/11/22 05:15:46;;;;;;;23.05;12.65;;;5.60;83.00;;;;;;5040374;28;20037;-67
2021/11/22 05:18:12;;;;;;;24.75;12.93;;;5.60;83.00;;;;;;5037914;28;20095;-67
2021/11/22 05:20:40;;;;;;;23.23;12.65;;;5.60;83.00;;;;;;5041092;28;20068;-67
2021/11/22 05:23:06;;;;;;;22.60;12.68;;;5.60;83.00;;;;;;5040270;28;20095;-67
2021/11/22 05:25:33;;;;;;;27.08;13.40;;;5.60;83.00;;;;;;5044282;28;20037;-67
2021/11/22 05:27:59;;;;;;;24.17;13.07;;;5.60;83.00;;;;;;5041878;28;20565;-67
2021/11/22 05:30:26;;;;;;;25.80;13.32;;;5.60;83.00;;;;;;5036704;28;20041;-66
2021/11/22 05:32:52;;;;;;;25.35;13.60;;;5.60;83.10;;;;;;5032059;28;20052;-67
2021/11/22 05:35:18;;;;;;;25.45;12.65;;;5.60;83.20;;;;;;5042168;28;20037;-67
2021/11/22 05:37:44;;;;;;;27.38;12.73;;;5.60;83.20;;;;;;5038253;28;20043;-67
2021/11/22 05:40:10;;;;;;;25.92;12.98;;;5.60;83.20;;;;;;5038048;28;20072;-67
2021/11/22 05:42:36;;;;;;;25.77;12.95;;;5.60;83.20;;;;;;5040000;28;20087;-67
2021/11/22 05:45:03;;;;;;;28.52;13.48;;;5.60;83.20;;;;;;5046252;28;20033;-68
2021/11/22 05:47:29;;;;;;;25.20;12.77;;;5.70;83.20;;;;;;5041864;28;20064;-67
2021/11/22 05:50:02;;;;;;;23.85;12.70;;;5.60;83.20;;;;;;5045369;28;20125;-67
2021/11/22 05:52:28;;;;;;;30.50;14.35;;;5.70;83.20;;;;;;5043125;28;20041;-66
2021/11/22 05:54:55;;;;;;;28.17;13.43;;;5.70;83.20;;;;;;5044639;28;20231;-67
2021/11/22 05:57:22;;;;;;;28.70;13.88;;;5.70;83.30;;;;;;5040147;28;20045;-67
2021/11/22 05:59:48;;;;;;;31.83;13.98;;;5.70;83.20;;;;;;5042041;28;20068;-66
2021/11/22 06:02:15;;;;;;;27.65;13.40;;;5.80;83.30;;;;;;5042159;28;20123;-68
2021/11/22 06:04:41;;;;;;;29.40;13.88;;;5.70;83.30;;;;;;5038093;28;20041;-67
2021/11/22 06:07:06;;;;;;;29.20;13.68;;;5.70;83.40;;;;;;5045577;28;20029;-68
2021/11/22 06:09:32;;;;;;;25.92;13.10;;;5.70;83.50;;;;;;5042901;28;20075;-64
2021/11/22 06:11:58;;;;;;;30.85;13.98;;;5.70;83.50;;;;;;5039622;28;20044;-67
2021/11/22 06:14:24;;;;;;;26.38;13.07;;;5.70;83.60;;;;;;5050382;28;20060;-67
2021/11/22 06:16:49;;;;;;;27.83;13.63;;;5.70;83.70;;;;;;5049371;28;20040;-67
2021/11/22 06:19:15;;;;;;;31.83;13.73;;;5.70;83.70;;;;;;5049929;28;20036;-67
2021/11/22 06:21:41;;;;;;;29.17;13.52;;;5.70;83.70;;;;;;5050558;28;20271;-66
2021/11/22 06:24:06;;;;;;;27.85;13.48;;;5.70;83.70;;;;;;5049548;28;20037;-67
2021/11/22 06:26:32;;;;;;;29.25;12.88;;;5.70;83.70;;;;;;5048857;28;20523;-66
2021/11/22 06:28:59;;;;;;;27.55;13.35;;;5.70;83.70;;;;;;5049049;28;20397;-67
2021/11/22 06:31:25;;;;;;;28.13;13.50;;;5.70;83.70;;;;;;5050139;28;20029;-67
2021/11/22 06:33:50;;;;;;;28.17;13.55;;;5.70;83.80;;;;;;5049310;28;20026;-66
2021/11/22 06:36:16;;;;;;;29.40;13.32;;;5.70;83.90;;;;;;5046285;28;20041;-67
2021/11/22 06:38:42;;;;;;;28.73;13.18;;;5.70;83.90;;;;;;5048533;28;20037;-67
2021/11/22 06:41:08;;;;;;;30.55;14.32;;;5.70;83.90;;;;;;5046691;28;20405;-67
2021/11/22 06:43:33;;;;;;;30.83;13.88;;;5.70;83.90;;;;;;5049065;28;20083;-67
2021/11/22 06:45:59;;;;;;;30.23;14.18;;;5.70;84.00;;;;;;5049443;28;20120;-67
2021/11/22 06:48:25;;;;;;;27.52;13.23;;;5.70;84.00;;;;;;5048927;28;20033;-68
2021/11/22 06:50:50;;;;;;;30.67;14.05;;;5.70;84.00;;;;;;5048826;28;20071;-67
2021/11/22 06:53:21;;;;;;;27.27;13.10;;;5.70;84.00;;;;;;5049623;28;20090;-67
2021/11/22 06:55:47;;;;;;;30.60;14.38;;;5.70;84.10;;;;;;5048911;28;20514;-67
2021/11/22 06:58:13;;;;;;;26.60;13.45;;;5.70;84.20;;;;;;5048996;28;20565;-68
2021/11/22 07:00:38;;;;;;;27.15;13.15;;;5.80;84.30;;;;;;5048770;28;20041;-67
2021/11/22 07:03:04;;;;;;;26.15;12.88;;;5.70;84.20;;;;;;5046480;28;20044;-67
2021/11/22 07:05:30;;;;;;;26.73;12.93;;;5.70;84.20;;;;;;5048760;28;20132;-67
2021/11/22 07:07:57;;;;;;;29.42;13.00;;;5.70;84.20;;;;;;5049187;28;20036;-67
2021/11/22 07:10:22;;;;;;;26.35;12.73;;;5.70;84.30;;;;;;5048197;28;20128;-67
2021/11/22 07:12:49;;;;;;;28.10;14.07;;;5.70;84.40;;;;;;5043637;28;20039;-67
2021/11/22 07:15:20;;;;;;;32.15;13.57;;;5.70;84.40;;;;;;5046715;28;20040;-66
2021/11/22 07:17:46;;;;;;;27.45;14.10;;;5.70;84.40;;;;;;5045100;28;20445;-67
2021/11/22 07:20:11;;;;;;;29.52;14.55;;;5.70;84.60;;;;;;5047993;28;20072;-67
2021/11/22 07:22:37;;;;;;;27.25;13.80;;;5.80;84.50;;;;;;5047830;28;20029;-67
2021/11/22 07:25:04;;;;;;;27.10;14.10;;;5.80;84.50;;;;;;5048114;28;20116;-67
2021/11/22 07:27:29;;;;;;;24.95;12.80;;;5.80;84.60;;;;;;5048036;28;20056;-67
2021/11/22 07:29:56;;;;;;;27.70;12.93;;;5.80;84.50;;;;;;5048540;28;20119;-67
2021/11/22 07:32:23;;;;;;;23.38;13.23;;;5.80;84.60;;;;;;5047897;28;20025;-68
2021/11/22 07:34:48;;;;;;;23.33;12.48;;;5.80;84.60;;;;;;5047989;28;20219;-67
2021/11/22 07:37:14;;;;;;;25.58;12.20;;;5.70;84.60;;;;;;5048203;28;20048;-67
2021/11/22 07:39:39;;;;;;;24.80;11.85;;;5.80;84.70;;;;;;5049218;28;20025;-67
2021/11/22 07:42:05;;;;;;;21.98;11.68;;;5.70;84.60;;;;;;5048901;28;20044;-68
2021/11/22 07:44:31;;;;;;;23.60;12.13;;;5.80;84.70;;;;;;5045063;28;20618;-67
2021/11/22 07:46:58;;;;;;;18.48;10.38;;;5.80;84.80;;;;;;5047840;28;20416;-67
2021/11/22 07:49:24;;;;;;;23.23;10.48;;;5.80;84.90;;;;;;5046656;28;20048;-66
2021/11/22 07:51:50;;;;;;;21.10;11.55;;;5.80;84.90;;;;;;5047767;28;20433;-67
2021/11/22 07:54:16;;;;;;;22.58;11.30;;;5.80;85.80;;;;;;5048248;28;20033;-67
2021/11/22 07:56:43;;;;;;;21.27;10.25;;;5.80;84.90;;;;;;5047691;28;20401;-67
2021/11/22 07:59:08;;;;;;;19.35;10.10;;;5.80;85.00;;;;;;5048158;28;20036;-67
2021/11/22 08:01:34;;;;;;;19.65;10.40;;;5.80;85.10;;;;;;5043469;28;20527;-67
2021/11/22 08:04:00;;;;;;;20.20;11.07;;;5.80;85.00;;;;;;5043382;28;20029;-67
2021/11/22 08:06:25;;;;;;;19.05;10.00;;;5.80;85.10;;;;;;5036989;28;20397;-67
2021/11/22 08:08:52;;;;;;;19.83;10.77;;;5.80;85.10;;;;;;5044337;28;20055;-67
2021/11/22 08:13:52;;;;;;;20.38;10.57;;;5.80;85.10;;;;;;5042183;28;20508;-67
2021/11/22 08:16:20;;;;;;;18.98;10.05;;;5.90;85.30;;;;;;5042712;28;20037;-67
2021/11/22 08:18:46;;;;;;;17.38;10.02;;;5.90;85.20;;;;;;5037988;28;20413;-65
2021/11/22 08:21:12;;;;;;;18.80;10.23;;;5.90;85.20;;;;;;5045768;28;20036;-67
2021/11/22 08:23:39;;;;;;;18.50;10.02;;;5.90;85.30;;;;;;5042488;28;20055;-67
2021/11/22 08:26:05;;;;;;;16.42;9.13;;;5.90;86.10;;;;;;5045681;28;20041;-67
2021/11/22 08:28:31;;;;;;;17.70;9.65;;;5.90;85.30;;;;;;5041095;28;20037;-67
2021/11/22 08:30:57;;;;;;;15.88;8.95;;;5.90;85.40;;;;;;5040482;28;20035;-67
2021/11/22 08:33:23;;;;;;;15.18;9.13;;;5.90;85.40;;;;;;5044535;28;20055;-66
2021/11/22 08:35:49;;;;;;;19.00;9.13;;;6.00;85.50;;;;;;5035797;28;20144;-67
2021/11/22 08:38:17;;;;;;;15.27;9.02;;;5.90;85.40;;;;;;5041697;28;20045;-66
2021/11/22 08:40:43;;;;;;;15.68;8.68;;;6.00;85.60;;;;;;5044475;28;20435;-67
2021/11/22 08:43:15;;;;;;;15.30;8.70;;;6.00;85.60;;;;;;5039438;28;20037;-66
2021/11/22 08:45:41;;;;;;;15.23;8.85;;;6.00;85.70;;;;;;5036850;28;20041;-67
2021/11/22 08:48:08;;;;;;;13.65;8.10;;;6.00;85.60;;;;;;5039616;28;20139;-67
2021/11/22 08:50:35;;;;;;;14.93;8.07;;;6.00;85.60;;;;;;5040012;28;20059;-67
2021/11/22 08:53:01;;;;;;;14.38;8.13;;;6.10;85.70;;;;;;5037811;28;20033;-67
2021/11/22 08:55:27;;;;;;;13.75;7.65;;;6.10;85.80;;;;;;5039580;28;20048;-67
2021/11/22 08:57:53;;;;;;;11.48;6.97;;;6.20;85.80;;;;;;5038161;28;20137;-67
2021/11/22 09:00:26;;;;;;;11.95;6.43;;;6.20;85.80;;;;;;5042534;28;20047;-67
2021/11/22 09:02:55;;;;;;;12.30;7.10;;;6.20;85.90;;;;;;5044961;28;20044;-67
2021/11/22 09:05:21;;;;;;;12.48;6.68;;;6.20;85.80;;;;;;5047031;28;20111;-67
2021/11/22 09:07:47;;;;;;;10.00;6.00;;;6.30;85.80;;;;;;5042450;28;20129;-67
2021/11/22 09:10:13;;;;;;;9.43;5.68;;;6.30;85.60;;;;;;5043835;28;20083;-67
2021/11/22 09:12:38;;;;;;;11.65;5.68;;;6.30;85.50;;;;;;5040229;28;20029;-66
2021/11/22 09:15:04;;;;;;;8.20;5.03;;;6.40;85.40;;;;;;5047192;28;20037;-67
2021/11/22 09:17:30;;;;;;;9.55;5.43;;;6.40;85.40;;;;;;5041629;28;20508;-67
2021/11/22 09:19:56;;;;;;;7.80;4.95;;;6.40;85.30;;;;;;5046163;28;20032;-67
2021/11/22 09:22:21;;;;;;;8.82;4.68;;;6.40;85.20;;;;;;5041270;28;20611;-68
2021/11/22 09:24:47;;;;;;;6.90;5.00;;;6.40;85.20;;;;;;5043645;28;20087;-67
2021/11/22 09:27:13;;;;;;;8.02;4.95;;;6.40;85.30;;;;;;5042443;28;20059;-68
2021/11/22 09:29:39;;;;;;;7.25;4.90;;;6.50;85.30;;;;;;5045005;28;20033;-67
2021/11/22 09:32:06;;;;;;;6.60;4.30;;;6.40;85.30;;;;;;5043130;28;20056;-67
2021/11/22 09:34:31;;;;;;;7.32;4.88;;;6.50;85.30;;;;;;5041339;28;20467;-67
2021/11/22 09:36:57;;;;;;;7.32;4.68;;;6.40;85.30;;;;;;5040833;28;20068;-66
2021/11/22 09:39:23;;;;;;;6.85;4.78;;;6.50;85.30;;;;;;5043278;28;20048;-66
2021/11/22 09:41:50;;;;;;;9.82;4.72;;;6.50;85.30;;;;;;5045301;28;20033;-67
2021/11/22 09:44:18;;;;;;;6.65;4.82;;;6.50;85.40;;;;;;5039835;28;20045;-67
2021/11/22 09:46:44;;;;;;;8.48;5.20;;;6.50;85.40;;;;;;5044962;28;20605;-67
2021/11/22 09:49:09;;;;;;;13.65;10.02;;;6.50;85.40;;;;;;5046080;28;20029;-67
2021/11/22 09:51:35;;;;;;;8.93;5.78;;;6.50;85.40;;;;;;5042719;28;20037;-67
2021/11/22 09:54:03;;;;;;;8.15;5.50;;;6.50;85.40;;;;;;5044120;28;20025;-67
2021/11/22 09:56:32;;;;;;;9.10;5.63;;;6.60;85.50;;;;;;5049224;28;20029;-67
2021/11/22 09:58:57;;;;;;;9.35;5.90;;;6.60;85.60;;;;;;5045326;28;20079;-67
2021/11/22 10:01:23;;;;;;;7.53;5.55;;;6.60;85.40;;;;;;5048737;28;20036;-66
2021/11/22 10:04:03;;;;;;;9.60;5.57;;;6.60;85.40;;;;;;5044389;28;20037;-67
2021/11/22 10:06:52;;;;;;;9.18;5.72;;;6.60;85.40;;;;;;5048010;28;20029;-67
2021/11/22 10:09:30;;;;;;;8.88;5.82;;;6.60;85.50;;;;;;5049816;28;20037;-67
2021/11/22 10:12:04;;;;;;;9.50;6.18;;;6.60;85.50;;;;;;5041441;28;20040;-66
2021/11/22 10:14:36;;;;;;;9.13;6.15;;;6.60;85.40;;;;;;5046222;28;20032;-67
2021/11/22 10:17:02;;;;;;;8.32;5.63;;;6.60;85.30;;;;;;5045613;28;20147;-67
2021/11/22 10:19:28;;;;;;;8.20;5.53;;;6.70;85.40;;;;;;5048359;28;20033;-67
2021/11/22 10:21:53;;;;;;;8.43;5.80;;;6.70;85.40;;;;;;5048861;28;20113;-67
2021/11/22 10:24:19;;;;;;;10.18;6.18;;;6.70;85.40;;;;;;5044622;28;20116;-66
2021/11/22 10:26:50;;;;;;;9.05;5.88;;;6.70;85.50;;;;;;5045193;28;20041;-66
2021/11/22 10:29:34;;;;;;;7.45;5.13;;;6.70;85.60;;;;;;5046379;28;20033;-66
2021/11/22 10:32:02;;;;;;;11.05;5.63;;;6.80;85.80;;;;;;5047282;28;20507;-67
2021/11/22 10:34:34;;;;;;;9.98;5.85;;;6.80;85.70;;;;;;5046609;28;20558;-67
2021/11/22 10:37:05;;;;;;;9.73;6.32;;;6.80;86.60;;;;;;5042734;28;20044;-67
2021/11/22 10:39:32;;;;;;;10.73;5.88;;;6.80;85.70;;;;;;5045199;28;20116;-67
2021/11/22 10:41:58;;;;;;;10.48;6.03;;;6.90;85.60;;;;;;5045277;28;20091;-67
2021/11/22 10:44:31;;;;;;;9.85;6.05;;;6.90;85.50;;;;;;5044802;28;20029;-68
2021/11/22 10:47:09;;;;;;;10.27;6.07;;;6.90;85.50;;;;;;5046124;28;20029;-67
2021/11/22 10:49:42;;;;;;;8.95;5.93;;;6.90;85.60;;;;;;5054475;28;20471;-67
2021/11/22 10:52:11;;;;;;;10.75;6.43;;;6.90;85.40;;;;;;5045666;28;20040;-66
2021/11/22 10:54:51;;;;;;;9.10;6.20;;;6.90;85.30;;;;;;5042322;28;20507;-67
2021/11/22 10:57:17;;;;;;;9.40;6.50;;;7.00;85.30;;;;;;5043999;28;20037;-67
2021/11/22 10:59:43;;;;;;;9.20;6.55;;;7.00;85.30;;;;;;5043015;28;20047;-67
2021/11/22 11:02:09;;;;;;;9.75;6.20;;;7.00;85.30;;;;;;5049147;28;20377;-67
2021/11/22 11:04:41;;;;;;;9.48;6.53;;;7.00;86.10;;;;;;5043952;28;20574;-67
2021/11/22 11:07:08;;;;;;;9.60;6.22;;;7.00;85.30;;;;;;5048565;28;20120;-67
2021/11/22 11:09:52;;;;;;;7.25;5.43;;;7.00;85.30;;;;;;5044390;28;20036;-67
2021/11/22 11:12:26;;;;;;;8.50;5.53;;;7.00;85.40;;;;;;5039085;28;20041;-66
2021/11/22 11:14:54;;;;;;;7.50;5.30;;;7.00;85.30;;;;;;5048334;28;20039;-66
2021/11/22 11:17:36;;;;;;;8.23;5.57;;;7.10;85.40;;;;;;5049353;28;20080;-67
2021/11/22 11:20:14;;;;;;;6.38;4.93;;;7.10;85.50;;;;;;5048012;28;20025;-66
2021/11/22 11:22:41;;;;;;;7.63;5.30;;;7.10;85.40;;;;;;5047035;28;20120;-67
2021/11/22 11:25:08;;;;;;;6.45;4.90;;;7.10;85.30;;;;;;5044420;28;20083;-67
2021/11/22 11:27:38;;;;;;;7.47;5.25;;;7.20;85.20;;;;;;5042828;28;20120;-67
2021/11/22 11:30:05;;;;;;;7.95;5.53;;;7.20;85.20;;;;;;5043043;28;20047;-66
2021/11/22 11:32:31;;;;;;;7.00;5.32;;;7.20;85.20;;;;;;5047954;28;20588;-66
2021/11/22 11:34:57;;;;;;;6.57;4.93;;;7.30;85.20;;;;;;5041659;28;20103;-66
2021/11/22 11:37:35;;;;;;;6.32;4.70;;;7.30;85.00;;;;;;5048784;28;20032;-66
2021/11/22 11:40:25;;;;;;;5.00;4.15;;;7.30;85.00;;;;;;5043705;28;20111;-66
2021/11/22 11:43:08;;;;;;;5.97;4.10;;;7.30;85.00;;;;;;5043242;28;20041;-66
2021/11/22 11:45:57;;;;;;;5.18;4.00;;;7.30;84.80;;;;;;5042183;28;20069;-66
2021/11/22 11:48:29;;;;;;;4.95;3.88;;;7.30;84.80;;;;;;5043842;28;20041;-66
2021/11/22 11:51:20;;;;;;;4.10;3.53;;;7.30;84.80;;;;;;5044498;28;20044;-66
2021/11/22 11:54:01;;;;;;;4.78;3.63;;;7.30;85.90;;;;;;5041015;28;20528;-66
2021/11/22 11:56:54;;;;;;;4.65;3.85;;;7.40;85.00;;;;;;5046201;28;20036;-67
2021/11/22 11:59:37;;;;;;;4.35;3.67;;;7.40;84.90;;;;;;5042718;28;20040;-67
2021/11/22 12:02:23;;;;;;;4.18;3.50;;;7.40;84.80;;;;;;5043644;28;20583;-66
2021/11/22 12:04:52;;;;;;;4.70;3.88;;;7.40;84.80;;;;;;5043258;28;20390;-66
2021/11/22 12:07:44;;;;;;;4.25;3.25;;;7.40;84.80;;;;;;5046625;28;20094;-66
2021/11/22 12:10:18;;;;;;;3.50;3.20;;;7.40;84.80;;;;;;5043255;28;20029;-66
2021/11/22 12:13:02;;;;;;;4.50;3.15;;;7.40;84.80;;;;;;5045191;28;20045;-65
2021/11/22 12:15:29;;;;;;;3.45;2.92;;;7.50;84.90;;;;;;5048005;28;20032;-67
2021/11/22 12:18:03;;;;;;;3.40;2.92;;;7.50;84.90;;;;;;5042715;28;20051;-66
2021/11/22 12:20:28;;;;;;;3.70;2.90;;;7.50;85.70;;;;;;5046521;28;20037;-67
2021/11/22 12:22:59;;;;;;;4.28;3.35;;;7.50;84.90;;;;;;5045756;28;20418;-66
2021/11/22 12:25:37;;;;;;;4.10;3.50;;;7.50;85.00;;;;;;5044564;28;20031;-66
2021/11/22 12:28:23;;;;;;;3.58;3.28;;;7.50;85.70;;;;;;5041474;28;20033;-66
2021/11/22 12:31:08;;;;;;;3.72;3.30;;;7.50;85.00;;;;;;5040277;28;20060;-66
2021/11/22 12:33:39;;;;;;;3.92;3.38;;;7.50;84.80;;;;;;5040801;28;20029;-66
2021/11/22 12:36:25;;;;;;;4.00;3.60;;;7.50;84.60;;;;;;5045129;28;20119;-66
2021/11/22 12:38:53;;;;;;;4.20;3.80;;;7.50;84.70;;;;;;5040634;28;20500;-66
2021/11/22 12:41:31;;;;;;;4.63;3.92;;;7.50;84.60;;;;;;5046156;28;20039;-66
2021/11/22 12:43:58;;;;;;;5.57;4.55;;;7.50;84.60;;;;;;5040636;28;20040;-66
2021/11/22 12:46:39;;;;;;;32.72;20.40;;;7.50;84.70;;;;;;5046337;28;20025;-66
2021/11/22 12:49:43;;;;;;;6.28;5.13;;;7.60;85.00;;;;;;5041828;28;20082;-66